sensor_id;sensor_type;location;lat;lon;timestamp;P1;durP1;ratioP1;P2;durP2;ratioP2
47529;SDS011;33272;51.922;7.730;2023-07-13T00:00:28;7.20;;;2.40;;
47529;SDS011;33272;51.922;7.730;2023-07-13T00:02:57;5.47;;;2.33;;
47529;SDS011;33272;51.922;7.730;2023-07-13T00:05:24;5.50;;;2.10;;
47529;SDS011;33272;51.922;7.730;2023-07-13T00:07:52;3.70;;;2.10;;
47529;SDS011;33272;51.922;7.730;2023-07-13T00:10:21;4.30;;;2.20;;
47529;SDS011;33272;51.922;7.730;2023-07-13T00:12:48;3.83;;;2.13;;
47529;SDS011;33272;51.922;7.730;2023-07-13T00:15:21;5.43;;;2.23;;
47529;SDS011;33272;51.922;7.730;2023-07-13T00:17:51;4.80;;;2.37;;
47529;SDS011;33272;51.922;7.730;2023-07-13T00:20:20;3.30;;;2.17;;
47529;SDS011;33272;51.922;7.730;2023-07-13T00:22:49;7.40;;;2.67;;
47529;SDS011;33272;51.922;7.730;2023-07-13T00:25:18;3.00;;;2.00;;
47529;SDS011;33272;51.922;7.730;2023-07-13T00:27:49;5.90;;;2.10;;
47529;SDS011;33272;51.922;7.730;2023-07-13T00:30:17;5.00;;;2.50;;
47529;SDS011;33272;51.922;7.730;2023-07-13T00:32:45;3.53;;;2.07;;
47529;SDS011;33272;51.922;7.730;2023-07-13T00:35:13;4.33;;;2.30;;
47529;SDS011;33272;51.922;7.730;2023-07-13T00:37:41;5.50;;;2.83;;
47529;SDS011;33272;51.922;7.730;2023-07-13T00:40:10;6.90;;;2.63;;
47529;SDS011;33272;51.922;7.730;2023-07-13T00:42:40;6.23;;;2.23;;
47529;SDS011;33272;51.922;7.730;2023-07-13T00:48:29;6.10;;;2.50;;
47529;SDS011;33272;51.922;7.730;2023-07-13T00:51:00;4.40;;;2.33;;
47529;SDS011;33272;51.922;7.730;2023-07-13T00:53:28;5.73;;;2.10;;
47529;SDS011;33272;51.922;7.730;2023-07-13T00:55:58;2.70;;;2.30;;
47529;SDS011;33272;51.922;7.730;2023-07-13T00:58:26;4.27;;;2.30;;
47529;SDS011;33272;51.922;7.730;2023-07-13T01:00:54;3.23;;;2.10;;
47529;SDS011;33272;51.922;7.730;2023-07-13T01:03:21;4.20;;;2.70;;
47529;SDS011;33272;51.922;7.730;2023-07-13T01:05:49;3.50;;;2.40;;
47529;SDS011;33272;51.922;7.730;2023-07-13T01:08:16;3.60;;;2.47;;
47529;SDS011;33272;51.922;7.730;2023-07-13T01:10:50;5.60;;;2.50;;
47529;SDS011;33272;51.922;7.730;2023-07-13T01:13:19;6.50;;;2.33;;
47529;SDS011;33272;51.922;7.730;2023-07-13T01:15:48;5.93;;;2.60;;
47529;SDS011;33272;51.922;7.730;2023-07-13T01:18:18;3.63;;;2.40;;
47529;SDS011;33272;51.922;7.730;2023-07-13T01:20:54;4.37;;;2.23;;
47529;SDS011;33272;51.922;7.730;2023-07-13T01:23:25;5.97;;;2.40;;
47529;SDS011;33272;51.922;7.730;2023-07-13T01:25:53;5.27;;;2.73;;
47529;SDS011;33272;51.922;7.730;2023-07-13T01:28:21;5.43;;;2.20;;
47529;SDS011;33272;51.922;7.730;2023-07-13T01:30:52;4.07;;;2.77;;
47529;SDS011;33272;51.922;7.730;2023-07-13T01:33:20;3.43;;;2.50;;
47529;SDS011;33272;51.922;7.730;2023-07-13T01:35:47;5.83;;;2.73;;
47529;SDS011;33272;51.922;7.730;2023-07-13T01:38:17;4.17;;;2.60;;
47529;SDS011;33272;51.922;7.730;2023-07-13T01:40:46;2.87;;;2.57;;
47529;SDS011;33272;51.922;7.730;2023-07-13T01:43:13;5.00;;;2.90;;
47529;SDS011;33272;51.922;7.730;2023-07-13T01:45:40;4.23;;;2.70;;
47529;SDS011;33272;51.922;7.730;2023-07-13T01:48:08;6.00;;;2.87;;
47529;SDS011;33272;51.922;7.730;2023-07-13T01:50:36;4.10;;;2.93;;
47529;SDS011;33272;51.922;7.730;2023-07-13T01:53:03;6.40;;;2.90;;
47529;SDS011;33272;51.922;7.730;2023-07-13T01:55:33;5.10;;;3.13;;
47529;SDS011;33272;51.922;7.730;2023-07-13T01:58:01;6.40;;;2.80;;
47529;SDS011;33272;51.922;7.730;2023-07-13T02:00:28;4.93;;;3.00;;
47529;SDS011;33272;51.922;7.730;2023-07-13T02:02:55;7.43;;;3.30;;
47529;SDS011;33272;51.922;7.730;2023-07-13T02:05:22;5.33;;;2.77;;
47529;SDS011;33272;51.922;7.730;2023-07-13T02:07:50;7.03;;;3.10;;
47529;SDS011;33272;51.922;7.730;2023-07-13T02:10:17;5.77;;;2.67;;
47529;SDS011;33272;51.922;7.730;2023-07-13T02:12:48;3.73;;;3.00;;
47529;SDS011;33272;51.922;7.730;2023-07-13T02:15:16;4.43;;;2.90;;
47529;SDS011;33272;51.922;7.730;2023-07-13T02:17:44;5.20;;;2.77;;
47529;SDS011;33272;51.922;7.730;2023-07-13T02:20:11;4.03;;;2.70;;
47529;SDS011;33272;51.922;7.730;2023-07-13T02:22:38;6.40;;;3.47;;
47529;SDS011;33272;51.922;7.730;2023-07-13T02:25:05;7.23;;;3.50;;
47529;SDS011;33272;51.922;7.730;2023-07-13T02:27:33;6.97;;;3.40;;
47529;SDS011;33272;51.922;7.730;2023-07-13T02:30:01;5.53;;;3.20;;
47529;SDS011;33272;51.922;7.730;2023-07-13T02:32:29;4.97;;;3.00;;
47529;SDS011;33272;51.922;7.730;2023-07-13T02:34:56;5.13;;;3.20;;
47529;SDS011;33272;51.922;7.730;2023-07-13T02:37:23;8.13;;;4.23;;
47529;SDS011;33272;51.922;7.730;2023-07-13T02:39:50;5.83;;;3.13;;
47529;SDS011;33272;51.922;7.730;2023-07-13T02:42:17;5.17;;;2.97;;
47529;SDS011;33272;51.922;7.730;2023-07-13T02:44:44;4.00;;;3.33;;
47529;SDS011;33272;51.922;7.730;2023-07-13T02:47:12;3.87;;;3.10;;
47529;SDS011;33272;51.922;7.730;2023-07-13T02:49:39;5.87;;;3.23;;
47529;SDS011;33272;51.922;7.730;2023-07-13T02:52:06;12.50;;;3.70;;
47529;SDS011;33272;51.922;7.730;2023-07-13T02:54:33;10.50;;;3.30;;
47529;SDS011;33272;51.922;7.730;2023-07-13T02:57:00;7.23;;;4.07;;
47529;SDS011;33272;51.922;7.730;2023-07-13T02:59:27;5.57;;;3.00;;
47529;SDS011;33272;51.922;7.730;2023-07-13T03:01:54;4.73;;;3.07;;
47529;SDS011;33272;51.922;7.730;2023-07-13T03:04:23;4.60;;;3.20;;
47529;SDS011;33272;51.922;7.730;2023-07-13T03:06:50;7.33;;;3.10;;
47529;SDS011;33272;51.922;7.730;2023-07-13T03:09:17;4.73;;;2.93;;
47529;SDS011;33272;51.922;7.730;2023-07-13T03:11:44;6.97;;;2.87;;
47529;SDS011;33272;51.922;7.730;2023-07-13T03:14:11;4.93;;;3.00;;
47529;SDS011;33272;51.922;7.730;2023-07-13T03:16:38;4.57;;;3.10;;
47529;SDS011;33272;51.922;7.730;2023-07-13T03:19:06;7.67;;;3.67;;
47529;SDS011;33272;51.922;7.730;2023-07-13T03:21:34;5.37;;;3.17;;
47529;SDS011;33272;51.922;7.730;2023-07-13T03:24:01;6.27;;;2.73;;
47529;SDS011;33272;51.922;7.730;2023-07-13T03:26:29;9.67;;;3.80;;
47529;SDS011;33272;51.922;7.730;2023-07-13T03:28:56;8.13;;;3.20;;
47529;SDS011;33272;51.922;7.730;2023-07-13T03:31:24;3.90;;;2.53;;
47529;SDS011;33272;51.922;7.730;2023-07-13T03:33:53;6.00;;;2.40;;
47529;SDS011;33272;51.922;7.730;2023-07-13T03:36:21;5.60;;;2.57;;
47529;SDS011;33272;51.922;7.730;2023-07-13T03:38:53;5.17;;;2.80;;
47529;SDS011;33272;51.922;7.730;2023-07-13T03:41:23;4.20;;;2.57;;
47529;SDS011;33272;51.922;7.730;2023-07-13T03:43:50;6.53;;;2.53;;
47529;SDS011;33272;51.922;7.730;2023-07-13T03:46:19;6.17;;;2.77;;
47529;SDS011;33272;51.922;7.730;2023-07-13T03:48:47;4.63;;;2.03;;
47529;SDS011;33272;51.922;7.730;2023-07-13T03:51:14;6.70;;;2.80;;
47529;SDS011;33272;51.922;7.730;2023-07-13T03:53:44;5.23;;;2.63;;
47529;SDS011;33272;51.922;7.730;2023-07-13T03:56:14;4.10;;;2.40;;
47529;SDS011;33272;51.922;7.730;2023-07-13T03:58:43;5.47;;;2.83;;
47529;SDS011;33272;51.922;7.730;2023-07-13T04:01:13;4.83;;;2.60;;
47529;SDS011;33272;51.922;7.730;2023-07-13T04:03:42;5.33;;;2.50;;
47529;SDS011;33272;51.922;7.730;2023-07-13T04:06:12;5.93;;;2.67;;
47529;SDS011;33272;51.922;7.730;2023-07-13T04:08:46;5.90;;;2.47;;
47529;SDS011;33272;51.922;7.730;2023-07-13T04:11:17;4.60;;;2.07;;
47529;SDS011;33272;51.922;7.730;2023-07-13T04:13:45;4.57;;;2.40;;
47529;SDS011;33272;51.922;7.730;2023-07-13T04:16:13;4.17;;;2.40;;
47529;SDS011;33272;51.922;7.730;2023-07-13T04:18:41;3.60;;;2.37;;
47529;SDS011;33272;51.922;7.730;2023-07-13T04:21:08;5.67;;;2.20;;
47529;SDS011;33272;51.922;7.730;2023-07-13T04:23:35;4.53;;;2.37;;
47529;SDS011;33272;51.922;7.730;2023-07-13T04:26:03;5.97;;;2.33;;
47529;SDS011;33272;51.922;7.730;2023-07-13T04:28:32;3.53;;;2.27;;
47529;SDS011;33272;51.922;7.730;2023-07-13T04:31:00;3.83;;;2.20;;
47529;SDS011;33272;51.922;7.730;2023-07-13T04:33:27;6.13;;;2.63;;
47529;SDS011;33272;51.922;7.730;2023-07-13T04:35:54;6.07;;;2.00;;
47529;SDS011;33272;51.922;7.730;2023-07-13T04:38:23;4.60;;;2.57;;
47529;SDS011;33272;51.922;7.730;2023-07-13T04:40:53;2.83;;;2.10;;
47529;SDS011;33272;51.922;7.730;2023-07-13T04:43:22;5.20;;;2.10;;
47529;SDS011;33272;51.922;7.730;2023-07-13T04:45:51;4.47;;;2.13;;
47529;SDS011;33272;51.922;7.730;2023-07-13T04:48:19;5.17;;;2.20;;
47529;SDS011;33272;51.922;7.730;2023-07-13T04:50:47;4.97;;;2.73;;
47529;SDS011;33272;51.922;7.730;2023-07-13T04:53:20;4.70;;;2.40;;
47529;SDS011;33272;51.922;7.730;2023-07-13T04:55:47;4.50;;;2.07;;
47529;SDS011;33272;51.922;7.730;2023-07-13T04:58:14;3.40;;;1.87;;
47529;SDS011;33272;51.922;7.730;2023-07-13T05:00:41;3.50;;;1.87;;
47529;SDS011;33272;51.922;7.730;2023-07-13T05:03:10;4.47;;;2.30;;
47529;SDS011;33272;51.922;7.730;2023-07-13T05:05:37;3.27;;;2.00;;
47529;SDS011;33272;51.922;7.730;2023-07-13T05:08:04;5.50;;;2.10;;
47529;SDS011;33272;51.922;7.730;2023-07-13T05:10:32;10.70;;;3.23;;
47529;SDS011;33272;51.922;7.730;2023-07-13T05:12:59;4.13;;;2.20;;
47529;SDS011;33272;51.922;7.730;2023-07-13T05:15:26;4.37;;;2.33;;
47529;SDS011;33272;51.922;7.730;2023-07-13T05:17:53;5.60;;;2.27;;
47529;SDS011;33272;51.922;7.730;2023-07-13T05:20:22;3.93;;;2.10;;
47529;SDS011;33272;51.922;7.730;2023-07-13T05:22:49;5.53;;;2.93;;
47529;SDS011;33272;51.922;7.730;2023-07-13T05:25:16;3.30;;;2.10;;
47529;SDS011;33272;51.922;7.730;2023-07-13T05:27:44;5.87;;;2.53;;
47529;SDS011;33272;51.922;7.730;2023-07-13T05:30:12;4.33;;;1.90;;
47529;SDS011;33272;51.922;7.730;2023-07-13T05:32:39;3.60;;;2.20;;
47529;SDS011;33272;51.922;7.730;2023-07-13T05:35:07;5.03;;;2.07;;
47529;SDS011;33272;51.922;7.730;2023-07-13T05:37:36;7.77;;;2.70;;
47529;SDS011;33272;51.922;7.730;2023-07-13T05:40:03;3.60;;;1.97;;
47529;SDS011;33272;51.922;7.730;2023-07-13T05:42:32;5.33;;;1.93;;
47529;SDS011;33272;51.922;7.730;2023-07-13T05:44:59;8.93;;;2.30;;
47529;SDS011;33272;51.922;7.730;2023-07-13T05:47:26;6.07;;;2.00;;
47529;SDS011;33272;51.922;7.730;2023-07-13T05:49:53;6.33;;;2.10;;
47529;SDS011;33272;51.922;7.730;2023-07-13T05:52:20;5.17;;;2.17;;
47529;SDS011;33272;51.922;7.730;2023-07-13T05:54:49;3.40;;;2.30;;
47529;SDS011;33272;51.922;7.730;2023-07-13T05:57:16;5.27;;;2.10;;
47529;SDS011;33272;51.922;7.730;2023-07-13T05:59:43;4.93;;;2.47;;
47529;SDS011;33272;51.922;7.730;2023-07-13T06:02:10;5.03;;;2.10;;
47529;SDS011;33272;51.922;7.730;2023-07-13T06:04:37;6.00;;;2.23;;
47529;SDS011;33272;51.922;7.730;2023-07-13T06:07:04;5.33;;;2.07;;
47529;SDS011;33272;51.922;7.730;2023-07-13T06:09:31;5.50;;;2.17;;
47529;SDS011;33272;51.922;7.730;2023-07-13T06:11:59;6.23;;;1.90;;
47529;SDS011;33272;51.922;7.730;2023-07-13T06:14:26;4.83;;;2.30;;
47529;SDS011;33272;51.922;7.730;2023-07-13T06:16:53;2.93;;;2.13;;
47529;SDS011;33272;51.922;7.730;2023-07-13T06:19:21;5.33;;;2.57;;
47529;SDS011;33272;51.922;7.730;2023-07-13T06:21:47;6.87;;;2.90;;
47529;SDS011;33272;51.922;7.730;2023-07-13T06:24:15;6.23;;;2.53;;
47529;SDS011;33272;51.922;7.730;2023-07-13T06:26:42;6.10;;;2.73;;
47529;SDS011;33272;51.922;7.730;2023-07-13T06:29:10;6.43;;;2.87;;
47529;SDS011;33272;51.922;7.730;2023-07-13T06:31:40;4.13;;;2.33;;
47529;SDS011;33272;51.922;7.730;2023-07-13T06:34:07;4.37;;;2.63;;
47529;SDS011;33272;51.922;7.730;2023-07-13T06:36:34;8.93;;;2.90;;
47529;SDS011;33272;51.922;7.730;2023-07-13T06:39:03;6.43;;;2.77;;
47529;SDS011;33272;51.922;7.730;2023-07-13T06:41:32;8.17;;;2.63;;
47529;SDS011;33272;51.922;7.730;2023-07-13T06:43:59;6.73;;;2.70;;
47529;SDS011;33272;51.922;7.730;2023-07-13T06:46:28;9.17;;;3.30;;
47529;SDS011;33272;51.922;7.730;2023-07-13T06:48:55;5.63;;;2.60;;
47529;SDS011;33272;51.922;7.730;2023-07-13T06:51:22;5.23;;;2.47;;
47529;SDS011;33272;51.922;7.730;2023-07-13T06:53:51;5.83;;;2.80;;
47529;SDS011;33272;51.922;7.730;2023-07-13T06:56:18;5.87;;;3.13;;
47529;SDS011;33272;51.922;7.730;2023-07-13T06:58:45;5.93;;;2.63;;
47529;SDS011;33272;51.922;7.730;2023-07-13T07:01:12;6.00;;;3.13;;
47529;SDS011;33272;51.922;7.730;2023-07-13T07:03:40;7.70;;;3.37;;
47529;SDS011;33272;51.922;7.730;2023-07-13T07:06:11;6.23;;;2.37;;
47529;SDS011;33272;51.922;7.730;2023-07-13T07:08:43;7.97;;;2.57;;
47529;SDS011;33272;51.922;7.730;2023-07-13T07:11:12;6.10;;;2.30;;
47529;SDS011;33272;51.922;7.730;2023-07-13T07:13:40;8.23;;;2.50;;
47529;SDS011;33272;51.922;7.730;2023-07-13T07:16:07;8.37;;;2.90;;
47529;SDS011;33272;51.922;7.730;2023-07-13T07:18:34;8.63;;;2.67;;
47529;SDS011;33272;51.922;7.730;2023-07-13T07:21:03;5.47;;;2.50;;
47529;SDS011;33272;51.922;7.730;2023-07-13T07:23:30;3.93;;;2.20;;
47529;SDS011;33272;51.922;7.730;2023-07-13T07:25:57;6.03;;;2.47;;
47529;SDS011;33272;51.922;7.730;2023-07-13T07:28:25;4.77;;;2.10;;
47529;SDS011;33272;51.922;7.730;2023-07-13T07:30:53;5.97;;;2.97;;
47529;SDS011;33272;51.922;7.730;2023-07-13T07:33:23;6.10;;;3.10;;
47529;SDS011;33272;51.922;7.730;2023-07-13T07:35:51;6.17;;;2.10;;
47529;SDS011;33272;51.922;7.730;2023-07-13T07:38:20;6.67;;;2.40;;
47529;SDS011;33272;51.922;7.730;2023-07-13T07:40:47;4.20;;;2.20;;
47529;SDS011;33272;51.922;7.730;2023-07-13T07:43:14;5.13;;;2.07;;
47529;SDS011;33272;51.922;7.730;2023-07-13T07:45:41;7.80;;;2.63;;
47529;SDS011;33272;51.922;7.730;2023-07-13T07:48:10;6.10;;;2.43;;
47529;SDS011;33272;51.922;7.730;2023-07-13T07:50:37;8.97;;;2.40;;
47529;SDS011;33272;51.922;7.730;2023-07-13T07:53:05;4.13;;;1.80;;
47529;SDS011;33272;51.922;7.730;2023-07-13T07:55:36;5.67;;;2.47;;
47529;SDS011;33272;51.922;7.730;2023-07-13T07:58:04;6.57;;;2.10;;
47529;SDS011;33272;51.922;7.730;2023-07-13T08:00:31;4.40;;;2.20;;
47529;SDS011;33272;51.922;7.730;2023-07-13T08:03:00;6.47;;;2.43;;
47529;SDS011;33272;51.922;7.730;2023-07-13T08:05:28;7.97;;;2.83;;
47529;SDS011;33272;51.922;7.730;2023-07-13T08:07:55;5.97;;;2.60;;
47529;SDS011;33272;51.922;7.730;2023-07-13T08:10:22;7.40;;;3.57;;
47529;SDS011;33272;51.922;7.730;2023-07-13T08:12:51;5.37;;;2.50;;
47529;SDS011;33272;51.922;7.730;2023-07-13T08:15:18;5.70;;;2.60;;
47529;SDS011;33272;51.922;7.730;2023-07-13T08:17:46;6.83;;;2.30;;
47529;SDS011;33272;51.922;7.730;2023-07-13T08:20:13;7.10;;;2.80;;
47529;SDS011;33272;51.922;7.730;2023-07-13T08:22:41;4.20;;;2.70;;
47529;SDS011;33272;51.922;7.730;2023-07-13T08:25:08;7.30;;;2.60;;
47529;SDS011;33272;51.922;7.730;2023-07-13T08:27:35;5.30;;;2.53;;
47529;SDS011;33272;51.922;7.730;2023-07-13T08:30:04;5.97;;;2.70;;
47529;SDS011;33272;51.922;7.730;2023-07-13T08:32:33;4.13;;;2.40;;
47529;SDS011;33272;51.922;7.730;2023-07-13T08:35:00;5.27;;;2.83;;
47529;SDS011;33272;51.922;7.730;2023-07-13T08:37:27;10.87;;;3.17;;
47529;SDS011;33272;51.922;7.730;2023-07-13T08:39:54;5.33;;;2.90;;
47529;SDS011;33272;51.922;7.730;2023-07-13T08:42:25;4.03;;;2.80;;
47529;SDS011;33272;51.922;7.730;2023-07-13T08:45:14;7.17;;;2.73;;
47529;SDS011;33272;51.922;7.730;2023-07-13T08:47:49;4.27;;;2.77;;
47529;SDS011;33272;51.922;7.730;2023-07-13T08:50:22;5.50;;;2.50;;
47529;SDS011;33272;51.922;7.730;2023-07-13T08:52:54;5.57;;;2.43;;
47529;SDS011;33272;51.922;7.730;2023-07-13T08:55:24;3.67;;;2.30;;
47529;SDS011;33272;51.922;7.730;2023-07-13T08:57:59;5.43;;;2.50;;
47529;SDS011;33272;51.922;7.730;2023-07-13T09:00:36;6.87;;;2.70;;
47529;SDS011;33272;51.922;7.730;2023-07-13T09:03:12;5.27;;;3.03;;
47529;SDS011;33272;51.922;7.730;2023-07-13T09:05:49;6.40;;;3.33;;
47529;SDS011;33272;51.922;7.730;2023-07-13T09:08:31;7.50;;;3.10;;
47529;SDS011;33272;51.922;7.730;2023-07-13T09:11:23;5.23;;;3.40;;
47529;SDS011;33272;51.922;7.730;2023-07-13T09:14:23;5.50;;;2.60;;
47529;SDS011;33272;51.922;7.730;2023-07-13T09:17:10;4.90;;;2.60;;
47529;SDS011;33272;51.922;7.730;2023-07-13T09:19:42;2.90;;;2.17;;
47529;SDS011;33272;51.922;7.730;2023-07-13T09:22:13;3.43;;;2.30;;
47529;SDS011;33272;51.922;7.730;2023-07-13T09:24:50;4.73;;;2.40;;
47529;SDS011;33272;51.922;7.730;2023-07-13T09:27:27;6.37;;;2.53;;
47529;SDS011;33272;51.922;7.730;2023-07-13T09:30:02;6.80;;;2.90;;
47529;SDS011;33272;51.922;7.730;2023-07-13T09:32:52;7.67;;;2.80;;
47529;SDS011;33272;51.922;7.730;2023-07-13T09:35:20;5.30;;;2.50;;
47529;SDS011;33272;51.922;7.730;2023-07-13T09:37:56;7.17;;;3.00;;
47529;SDS011;33272;51.922;7.730;2023-07-13T09:40:28;5.87;;;2.57;;
47529;SDS011;33272;51.922;7.730;2023-07-13T09:43:05;4.77;;;2.77;;
47529;SDS011;33272;51.922;7.730;2023-07-13T09:45:36;5.40;;;2.80;;
47529;SDS011;33272;51.922;7.730;2023-07-13T09:48:06;4.73;;;2.70;;
47529;SDS011;33272;51.922;7.730;2023-07-13T09:50:38;5.60;;;2.90;;
47529;SDS011;33272;51.922;7.730;2023-07-13T09:53:10;6.20;;;3.00;;
47529;SDS011;33272;51.922;7.730;2023-07-13T09:55:39;7.83;;;3.80;;
47529;SDS011;33272;51.922;7.730;2023-07-13T09:58:09;4.47;;;3.03;;
47529;SDS011;33272;51.922;7.730;2023-07-13T10:00:39;4.10;;;3.03;;
47529;SDS011;33272;51.922;7.730;2023-07-13T10:03:16;6.90;;;3.90;;
47529;SDS011;33272;51.922;7.730;2023-07-13T10:05:46;5.50;;;3.37;;
47529;SDS011;33272;51.922;7.730;2023-07-13T10:08:20;4.70;;;3.53;;
47529;SDS011;33272;51.922;7.730;2023-07-13T10:10:53;6.70;;;4.27;;
47529;SDS011;33272;51.922;7.730;2023-07-13T10:13:29;5.50;;;4.17;;
47529;SDS011;33272;51.922;7.730;2023-07-13T10:16:02;7.93;;;4.60;;
47529;SDS011;33272;51.922;7.730;2023-07-13T10:18:34;6.57;;;4.17;;
47529;SDS011;33272;51.922;7.730;2023-07-13T10:21:12;6.57;;;4.67;;
47529;SDS011;33272;51.922;7.730;2023-07-13T10:23:43;8.83;;;4.93;;
47529;SDS011;33272;51.922;7.730;2023-07-13T10:26:15;5.33;;;4.50;;
47529;SDS011;33272;51.922;7.730;2023-07-13T10:28:49;5.80;;;4.53;;
47529;SDS011;33272;51.922;7.730;2023-07-13T10:31:21;7.33;;;4.17;;
47529;SDS011;33272;51.922;7.730;2023-07-13T10:33:51;5.53;;;3.93;;
47529;SDS011;33272;51.922;7.730;2023-07-13T10:36:22;5.17;;;3.40;;
47529;SDS011;33272;51.922;7.730;2023-07-13T10:38:59;4.50;;;3.67;;
47529;SDS011;33272;51.922;7.730;2023-07-13T10:41:31;3.87;;;3.47;;
47529;SDS011;33272;51.922;7.730;2023-07-13T10:44:04;4.30;;;3.90;;
47529;SDS011;33272;51.922;7.730;2023-07-13T10:46:33;5.70;;;3.60;;
47529;SDS011;33272;51.922;7.730;2023-07-13T10:49:02;5.07;;;3.67;;
47529;SDS011;33272;51.922;7.730;2023-07-13T10:51:34;4.53;;;3.13;;
47529;SDS011;33272;51.922;7.730;2023-07-13T10:54:14;5.93;;;3.43;;
47529;SDS011;33272;51.922;7.730;2023-07-13T10:56:48;5.30;;;3.53;;
47529;SDS011;33272;51.922;7.730;2023-07-13T10:59:32;5.93;;;3.23;;
47529;SDS011;33272;51.922;7.730;2023-07-13T11:02:08;6.47;;;3.37;;
47529;SDS011;33272;51.922;7.730;2023-07-13T11:04:43;4.40;;;3.37;;
47529;SDS011;33272;51.922;7.730;2023-07-13T11:07:19;7.20;;;3.30;;
47529;SDS011;33272;51.922;7.730;2023-07-13T11:09:49;3.53;;;3.07;;
47529;SDS011;33272;51.922;7.730;2023-07-13T11:12:28;6.40;;;3.10;;
47529;SDS011;33272;51.922;7.730;2023-07-13T11:15:28;6.47;;;2.60;;
47529;SDS011;33272;51.922;7.730;2023-07-13T11:18:19;4.70;;;2.80;;
47529;SDS011;33272;51.922;7.730;2023-07-13T11:20:51;4.07;;;2.30;;
47529;SDS011;33272;51.922;7.730;2023-07-13T11:23:40;7.67;;;3.00;;
47529;SDS011;33272;51.922;7.730;2023-07-13T11:29:09;6.53;;;3.00;;
47529;SDS011;33272;51.922;7.730;2023-07-13T11:31:51;3.83;;;2.10;;
47529;SDS011;33272;51.922;7.730;2023-07-13T11:34:21;3.73;;;1.90;;
47529;SDS011;33272;51.922;7.730;2023-07-13T11:36:56;4.67;;;1.90;;
47529;SDS011;33272;51.922;7.730;2023-07-13T11:39:27;3.70;;;1.87;;
47529;SDS011;33272;51.922;7.730;2023-07-13T11:41:58;2.83;;;1.80;;
47529;SDS011;33272;51.922;7.730;2023-07-13T11:44:28;2.90;;;1.87;;
47529;SDS011;33272;51.922;7.730;2023-07-13T11:47:00;2.93;;;1.63;;
47529;SDS011;33272;51.922;7.730;2023-07-13T11:49:40;5.10;;;2.20;;
47529;SDS011;33272;51.922;7.730;2023-07-13T11:52:12;7.37;;;2.57;;
47529;SDS011;33272;51.922;7.730;2023-07-13T11:54:49;5.83;;;1.80;;
47529;SDS011;33272;51.922;7.730;2023-07-13T11:57:23;3.67;;;2.03;;
47529;SDS011;33272;51.922;7.730;2023-07-13T11:59:54;3.93;;;1.80;;
47529;SDS011;33272;51.922;7.730;2023-07-13T12:02:25;2.77;;;1.97;;
47529;SDS011;33272;51.922;7.730;2023-07-13T12:04:55;3.20;;;1.80;;
47529;SDS011;33272;51.922;7.730;2023-07-13T12:07:24;7.07;;;2.03;;
47529;SDS011;33272;51.922;7.730;2023-07-13T12:09:59;3.53;;;2.10;;
47529;SDS011;33272;51.922;7.730;2023-07-13T12:12:28;4.17;;;2.37;;
47529;SDS011;33272;51.922;7.730;2023-07-13T12:14:55;6.20;;;2.10;;
47529;SDS011;33272;51.922;7.730;2023-07-13T12:17:23;3.83;;;2.13;;
47529;SDS011;33272;51.922;7.730;2023-07-13T12:19:52;2.97;;;2.00;;
47529;SDS011;33272;51.922;7.730;2023-07-13T12:22:20;4.47;;;1.90;;
47529;SDS011;33272;51.922;7.730;2023-07-13T12:24:49;4.27;;;1.90;;
47529;SDS011;33272;51.922;7.730;2023-07-13T12:27:20;3.00;;;1.70;;
47529;SDS011;33272;51.922;7.730;2023-07-13T12:29:50;5.73;;;2.20;;
47529;SDS011;33272;51.922;7.730;2023-07-13T12:32:20;5.23;;;2.20;;
47529;SDS011;33272;51.922;7.730;2023-07-13T12:34:51;3.47;;;2.20;;
47529;SDS011;33272;51.922;7.730;2023-07-13T12:37:21;4.13;;;2.00;;
47529;SDS011;33272;51.922;7.730;2023-07-13T12:39:50;4.47;;;2.30;;
47529;SDS011;33272;51.922;7.730;2023-07-13T12:42:19;4.43;;;2.07;;
47529;SDS011;33272;51.922;7.730;2023-07-13T12:44:52;5.47;;;2.40;;
47529;SDS011;33272;51.922;7.730;2023-07-13T12:47:22;4.50;;;2.17;;
47529;SDS011;33272;51.922;7.730;2023-07-13T12:49:50;3.87;;;2.00;;
47529;SDS011;33272;51.922;7.730;2023-07-13T12:52:24;4.57;;;2.30;;
47529;SDS011;33272;51.922;7.730;2023-07-13T12:54:58;3.57;;;2.33;;
47529;SDS011;33272;51.922;7.730;2023-07-13T12:57:31;6.70;;;2.67;;
47529;SDS011;33272;51.922;7.730;2023-07-13T12:59:58;4.57;;;2.70;;
47529;SDS011;33272;51.922;7.730;2023-07-13T13:02:27;5.53;;;2.13;;
47529;SDS011;33272;51.922;7.730;2023-07-13T13:04:57;5.27;;;2.03;;
47529;SDS011;33272;51.922;7.730;2023-07-13T13:07:25;5.40;;;2.70;;
47529;SDS011;33272;51.922;7.730;2023-07-13T13:09:52;5.20;;;2.30;;
47529;SDS011;33272;51.922;7.730;2023-07-13T13:12:21;4.93;;;2.87;;
47529;SDS011;33272;51.922;7.730;2023-07-13T13:14:50;5.30;;;2.40;;
47529;SDS011;33272;51.922;7.730;2023-07-13T13:17:18;4.80;;;2.40;;
47529;SDS011;33272;51.922;7.730;2023-07-13T13:19:49;3.37;;;2.43;;
47529;SDS011;33272;51.922;7.730;2023-07-13T13:22:18;4.63;;;2.60;;
47529;SDS011;33272;51.922;7.730;2023-07-13T13:24:45;4.50;;;2.73;;
47529;SDS011;33272;51.922;7.730;2023-07-13T13:27:14;3.60;;;2.20;;
47529;SDS011;33272;51.922;7.730;2023-07-13T13:29:45;6.00;;;2.60;;
47529;SDS011;33272;51.922;7.730;2023-07-13T13:32:14;3.70;;;2.57;;
47529;SDS011;33272;51.922;7.730;2023-07-13T13:34:41;5.07;;;2.53;;
47529;SDS011;33272;51.922;7.730;2023-07-13T13:39:53;3.90;;;1.80;;
47529;SDS011;33272;51.922;7.730;2023-07-13T13:42:20;2.47;;;1.50;;
47529;SDS011;33272;51.922;7.730;2023-07-13T13:44:51;2.47;;;1.80;;
47529;SDS011;33272;51.922;7.730;2023-07-13T13:47:24;3.50;;;2.27;;
47529;SDS011;33272;51.922;7.730;2023-07-13T13:49:57;3.27;;;2.10;;
47529;SDS011;33272;51.922;7.730;2023-07-13T13:52:25;3.60;;;2.53;;
47529;SDS011;33272;51.922;7.730;2023-07-13T13:54:52;2.80;;;2.30;;
47529;SDS011;33272;51.922;7.730;2023-07-13T13:57:21;5.03;;;2.40;;
47529;SDS011;33272;51.922;7.730;2023-07-13T13:59:51;4.13;;;2.27;;
47529;SDS011;33272;51.922;7.730;2023-07-13T14:02:22;4.07;;;2.60;;
47529;SDS011;33272;51.922;7.730;2023-07-13T14:04:54;3.13;;;2.63;;
47529;SDS011;33272;51.922;7.730;2023-07-13T14:07:24;3.03;;;2.30;;
47529;SDS011;33272;51.922;7.730;2023-07-13T14:09:52;2.83;;;2.53;;
47529;SDS011;33272;51.922;7.730;2023-07-13T14:12:22;3.40;;;2.30;;
47529;SDS011;33272;51.922;7.730;2023-07-13T14:14:52;3.43;;;2.37;;
47529;SDS011;33272;51.922;7.730;2023-07-13T14:17:20;2.77;;;2.00;;
47529;SDS011;33272;51.922;7.730;2023-07-13T14:19:51;5.00;;;2.13;;
47529;SDS011;33272;51.922;7.730;2023-07-13T14:22:22;2.20;;;2.00;;
47529;SDS011;33272;51.922;7.730;2023-07-13T14:24:51;2.30;;;2.10;;
47529;SDS011;33272;51.922;7.730;2023-07-13T14:27:19;3.17;;;2.13;;
47529;SDS011;33272;51.922;7.730;2023-07-13T14:29:46;2.30;;;1.93;;
47529;SDS011;33272;51.922;7.730;2023-07-13T14:32:15;2.90;;;1.67;;
47529;SDS011;33272;51.922;7.730;2023-07-13T14:34:42;2.20;;;1.80;;
47529;SDS011;33272;51.922;7.730;2023-07-13T14:37:12;2.20;;;1.70;;
47529;SDS011;33272;51.922;7.730;2023-07-13T14:39:42;5.03;;;2.00;;
47529;SDS011;33272;51.922;7.730;2023-07-13T14:42:10;2.03;;;1.57;;
47529;SDS011;33272;51.922;7.730;2023-07-13T14:44:38;1.87;;;1.60;;
47529;SDS011;33272;51.922;7.730;2023-07-13T14:47:05;2.63;;;2.27;;
47529;SDS011;33272;51.922;7.730;2023-07-13T14:49:36;1.73;;;1.43;;
47529;SDS011;33272;51.922;7.730;2023-07-13T14:52:08;2.83;;;2.20;;
47529;SDS011;33272;51.922;7.730;2023-07-13T14:54:38;3.00;;;1.60;;
47529;SDS011;33272;51.922;7.730;2023-07-13T14:57:09;1.70;;;1.50;;
47529;SDS011;33272;51.922;7.730;2023-07-13T14:59:37;2.03;;;1.83;;
47529;SDS011;33272;51.922;7.730;2023-07-13T15:02:11;3.83;;;1.47;;
47529;SDS011;33272;51.922;7.730;2023-07-13T15:04:44;2.33;;;1.97;;
47529;SDS011;33272;51.922;7.730;2023-07-13T15:07:11;2.20;;;1.50;;
47529;SDS011;33272;51.922;7.730;2023-07-13T15:09:40;1.67;;;1.40;;
47529;SDS011;33272;51.922;7.730;2023-07-13T15:12:08;2.77;;;1.40;;